M\t Eviapetrol III — SVA3278 — position and weather

sailwx.info

Track history (hours):
 
Tides and Currents Weather Stations Pressure Air Temp Water Temp Dewpoint Dewpoint Depression Visibility Wind Speed Wind Dir Waves Ship Positions

M\t Eviapetrol III

Last reported at 2017-Sep-18 19:53 UTC. Time now 2017-Sep-21 07:13 UTC.
Position N 37°55' E 023°01'.

Length 78 m; draft 4.4 m.

Type: Tanker. MMSI: 240949000.

Date/timePositionNaut miles runAvg speedWind from/ knotsBaromVisibWave heightAir tempDewpointWater temp
2017-Sep-18 19:53N 37°55' E 023°01'3 5.8
2017-Sep-18 19:27N 37°54' E 023°04'1 1.6
2017-Sep-18 18:39N 37°55' E 023°05'0 0.0
2017-Sep-18 18:30N 37°55' E 023°05'0 0.0
2017-Sep-18 17:59N 37°55' E 023°05'0 0.0
2017-Sep-18 17:29N 37°55' E 023°05'0 0.0
2017-Sep-18 15:24N 37°55' E 023°05'0 0.0
2017-Sep-18 14:59N 37°55' E 023°05'0 0.0
2017-Sep-18 14:30N 37°55' E 023°05'0 0.0
2017-Sep-18 14:00N 37°55' E 023°05'0 0.0
2017-Sep-18 13:30N 37°55' E 023°05'0 0.0
2017-Sep-18 12:59N 37°55' E 023°05'0 0.0
2017-Sep-18 12:30N 37°55' E 023°05'0 0.0
2017-Sep-18 12:00N 37°55' E 023°05'0 0.0
2017-Sep-18 11:23N 37°55' E 023°05'0 0.0
2017-Sep-18 11:00N 37°55' E 023°05'0 0.0
2017-Sep-18 09:53N 37°55' E 023°05'0 0.0
2017-Sep-18 09:29N 37°55' E 023°05'0 0.0
2017-Sep-18 09:00N 37°55' E 023°05'0 0.0
2017-Sep-18 08:29N 37°55' E 023°05'0 0.0
2017-Sep-18 08:00N 37°55' E 023°05'0 0.0
2017-Sep-18 07:30N 37°55' E 023°05'0 0.0
2017-Sep-18 06:55N 37°55' E 023°05'0 0.0
2017-Sep-18 06:30N 37°55' E 023°05'0 0.0
2017-Sep-18 05:44N 37°55' E 023°05'0 0.0
2017-Sep-18 05:30N 37°55' E 023°05'0 0.0
2017-Sep-18 05:00N 37°55' E 023°05'0 0.0
2017-Sep-18 04:28N 37°55' E 023°05'1 1.8
2017-Sep-18 03:51N 37°54' E 023°06'1 1.5
2017-Sep-18 03:30N 37°54' E 023°07'5 9.0
2017-Sep-18 03:00N 37°53' E 023°13'5 9.5
2017-Sep-18 02:30N 37°52' E 023°18'5 9.7
2017-Sep-18 02:00N 37°51' E 023°24'5 9.9
2017-Sep-18 01:30N 37°50' E 023°31'510.0
2017-Sep-18 01:00N 37°50' E 023°37'5 9.1
2017-Sep-18 00:30N 37°47' E 023°42'5 9.9
2017-Sep-18 00:00N 37°43' E 023°44'510.1
2017-Sep-17 23:30N 37°39' E 023°48'510.3
2017-Sep-17 23:00N 37°35' E 023°52'510.0
2017-Sep-17 22:30N 37°31' E 023°56'510.3
2017-Sep-17 22:00N 37°27' E 023°60'5 9.8
2017-Sep-17 21:30N 37°23' E 024°04'5 9.4
2017-Sep-17 21:00N 37°19' E 024°08'11 9.5
2017-Sep-17 19:50N 37°10' E 024°16'3 9.5
2017-Sep-17 19:30N 37°08' E 024°19'49 4.5
2017-Sep-17 08:32N 36°19' E 024°24'010.8
2017-Sep-17 08:30N 36°19' E 024°24'710.6
2017-Sep-17 07:48N 36°12' E 024°21'310.4
2017-Sep-17 07:30N 36°09' E 024°19'510.7
2017-Sep-17 07:00N 36°04' E 024°17'610.7
2017-Sep-17 06:26N 35°58' E 024°14'510.6
2017-Sep-17 06:00N 35°54' E 024°12'610.7
2017-Sep-17 05:29N 35°49' E 024°10'1210.7
2017-Sep-17 04:20N 35°37' E 024°04'310.5
2017-Sep-17 04:00N 35°34' E 024°03'19 0.7
2017-Sep-16 01:06N 35°34' E 024°27'1 8.6
2017-Sep-16 01:00N 35°34' E 024°28'123 4.7
2017-Sep-14 22:56N 37°32' E 023°46'4 9.8
2017-Sep-14 22:30N 37°36' E 023°44'5 9.7
2017-Sep-14 22:00N 37°40' E 023°42'5 9.9
2017-Sep-14 21:30N 37°44' E 023°39'5 9.8
2017-Sep-14 21:00N 37°49' E 023°36'5 9.9
2017-Sep-14 20:30N 37°50' E 023°30'510.1
2017-Sep-14 20:00N 37°52' E 023°25'4 8.4
2017-Sep-14 19:31N 37°56' E 023°23'3 6.6
2017-Sep-14 19:01N 37°59' E 023°25'5 9.7
2017-Sep-14 18:31N 38°01' E 023°30'3 6.8
2017-Sep-14 18:01N 38°01' E 023°35'1 1.6
2017-Sep-14 17:30N 38°02' E 023°36'0 0.0
2017-Sep-14 17:00N 38°02' E 023°36'0 0.0
2017-Sep-14 16:31N 38°02' E 023°36'0 0.0
2017-Sep-14 16:00N 38°02' E 023°36'0 0.0
2017-Sep-14 15:31N 38°02' E 023°36'0 0.0
2017-Sep-14 15:00N 38°02' E 023°36'0 0.0
2017-Sep-14 14:31N 38°02' E 023°36'0 0.0
2017-Sep-14 14:00N 38°02' E 023°36'0 0.0
2017-Sep-14 13:31N 38°02' E 023°36'0 0.2
2017-Sep-14 13:00N 38°02' E 023°36'3 5.5
2017-Sep-14 12:31N 38°01' E 023°32'0 0.2
2017-Sep-14 12:00N 38°01' E 023°32'0 0.0
2017-Sep-14 11:30N 38°01' E 023°32'1 1.5
2017-Sep-14 11:01N 38°01' E 023°31'5 9.9
2017-Sep-14 10:31N 37°59' E 023°25'3 6.6
2017-Sep-14 10:00N 37°57' E 023°23'510.5
2017-Sep-14 09:30N 37°56' E 023°16'510.4
2017-Sep-14 09:00N 37°55' E 023°10'4 6.5
2017-Sep-14 08:27N 37°55' E 023°05'0 0.0
2017-Sep-14 07:55N 37°55' E 023°05'0 0.0
2017-Sep-14 07:30N 37°55' E 023°05'0 0.0
2017-Sep-14 06:55N 37°55' E 023°05'0 0.0
2017-Sep-14 06:30N 37°55' E 023°05'0 0.0
2017-Sep-14 05:59N 37°55' E 023°05'0 0.0
2017-Sep-14 05:30N 37°55' E 023°05'0 0.0
2017-Sep-14 04:58N 37°55' E 023°05'0 0.0
2017-Sep-14 04:16N 37°55' E 023°05'0 0.0
2017-Sep-14 02:41N 37°55' E 023°05'0 0.0
2017-Sep-14 02:25N 37°55' E 023°05'0 0.0
2017-Sep-13 14:28N 37°55' E 023°05'1 1.5
2017-Sep-13 13:59N 37°54' E 023°05'  
2017-Sep-11 03:12N 37°54' E 023°04'1 3.4
2017-Sep-11 02:57N 37°54' E 023°05'1 0.6
2017-Sep-11 01:32N 37°55' E 023°05'0 0.0
2017-Sep-11 01:15N 37°55' E 023°05'0 0.0
2017-Sep-10 23:58N 37°55' E 023°05'0 0.0
2017-Sep-10 23:29N 37°55' E 023°05'0 0.0
2017-Sep-10 23:00N 37°55' E 023°05'0 0.0
2017-Sep-10 22:07N 37°55' E 023°05'0 0.0
2017-Sep-10 21:02N 37°55' E 023°05'0 0.0
2017-Sep-10 20:57N 37°55' E 023°05'0 0.0
2017-Sep-10 20:15N 37°55' E 023°05'0 0.0
2017-Sep-10 19:52N 37°55' E 023°05'0 0.0
2017-Sep-10 19:30N 37°55' E 023°05'0 0.0
2017-Sep-10 19:00N 37°55' E 023°05'0 0.0
2017-Sep-10 18:30N 37°55' E 023°05'0 0.0
2017-Sep-10 18:00N 37°55' E 023°05'0 0.0
2017-Sep-10 17:30N 37°55' E 023°05'0 0.0
2017-Sep-10 17:00N 37°55' E 023°05'0 0.0
2017-Sep-10 16:06N 37°55' E 023°05'0 0.0
2017-Sep-10 16:00N 37°55' E 023°05'0 0.0
2017-Sep-10 15:30N 37°55' E 023°05'0 0.0
2017-Sep-10 15:00N 37°55' E 023°05'0 0.0
2017-Sep-10 14:00N 37°55' E 023°05'0 0.0
2017-Sep-10 13:30N 37°55' E 023°05'0 0.0
2017-Sep-10 13:00N 37°55' E 023°05'0 0.0
2017-Sep-10 12:30N 37°55' E 023°05'0 0.0
2017-Sep-10 11:47N 37°55' E 023°05'0 0.0
2017-Sep-10 11:30N 37°55' E 023°05'0 0.0
2017-Sep-10 10:59N 37°55' E 023°05'0 0.2
2017-Sep-10 10:31N 37°55' E 023°05'1 1.6
2017-Sep-10 09:42N 37°54' E 023°07'1 6.5
2017-Sep-10 09:30N 37°54' E 023°08'510.4
2017-Sep-10 09:00N 37°53' E 023°15'510.3
2017-Sep-10 08:30N 37°52' E 023°21'510.3
2017-Sep-10 08:00N 37°51' E 023°27'510.3
2017-Sep-10 07:30N 37°50' E 023°34'5 9.5
2017-Sep-10 07:00N 37°49' E 023°40'510.0
2017-Sep-10 06:30N 37°45' E 023°43'5 9.7
2017-Sep-10 05:59N 37°40' E 023°46'5 9.9
2017-Sep-10 05:29N 37°39' E 023°52'7 9.4
2017-Sep-10 04:48N 37°36' E 023°59'38 9.4
2017-Sep-10 00:48N 37°23' E 024°44'3 9.9
2017-Sep-10 00:30N 37°22' E 024°47'5 9.7
2017-Sep-10 00:00N 37°20' E 024°53'5 9.9
2017-Sep-09 23:30N 37°19' E 024°59'510.3
2017-Sep-09 23:00N 37°18' E 025°05'510.3
2017-Sep-09 22:31N 37°17' E 025°12'5 9.6
2017-Sep-09 22:00N 37°15' E 025°17'510.2
2017-Sep-09 21:30N 37°15' E 025°23'510.1
2017-Sep-09 21:00N 37°14' E 025°30'7 9.5
2017-Sep-09 20:19N 37°13' E 025°38'3 9.7
2017-Sep-09 20:00N 37°12' E 025°41'510.0
2017-Sep-09 19:30N 37°11' E 025°48'  
Track history (hours):
 
Tides and Currents Weather Stations Pressure Air Temp Water Temp Dewpoint Dewpoint Depression Visibility Wind Speed Wind Dir Waves Ship Positions

M\t Eviapetrol III

Last reported at 2017-Sep-18 19:53 UTC. Time now 2017-Sep-21 07:13 UTC.
Position N 37°55' E 023°01'.

Length 78 m; draft 4.4 m.

Type: Tanker. MMSI: 240949000.

Date/timePositionNaut miles runAvg speedWind from/ knotsBaromVisibWave heightAir tempDewpointWater temp
2017-Sep-18 19:53N 37°55' E 023°01'3 5.8
2017-Sep-18 19:27N 37°54' E 023°04'1 1.6
2017-Sep-18 18:39N 37°55' E 023°05'0 0.0
2017-Sep-18 18:30N 37°55' E 023°05'0 0.0
2017-Sep-18 17:59N 37°55' E 023°05'0 0.0
2017-Sep-18 17:29N 37°55' E 023°05'0 0.0
2017-Sep-18 15:24N 37°55' E 023°05'0 0.0
2017-Sep-18 14:59N 37°55' E 023°05'0 0.0
2017-Sep-18 14:30N 37°55' E 023°05'0 0.0
2017-Sep-18 14:00N 37°55' E 023°05'0 0.0
2017-Sep-18 13:30N 37°55' E 023°05'0 0.0
2017-Sep-18 12:59N 37°55' E 023°05'0 0.0
2017-Sep-18 12:30N 37°55' E 023°05'0 0.0
2017-Sep-18 12:00N 37°55' E 023°05'0 0.0
2017-Sep-18 11:23N 37°55' E 023°05'0 0.0
2017-Sep-18 11:00N 37°55' E 023°05'0 0.0
2017-Sep-18 09:53N 37°55' E 023°05'0 0.0
2017-Sep-18 09:29N 37°55' E 023°05'0 0.0
2017-Sep-18 09:00N 37°55' E 023°05'0 0.0
2017-Sep-18 08:29N 37°55' E 023°05'0 0.0
2017-Sep-18 08:00N 37°55' E 023°05'0 0.0
2017-Sep-18 07:30N 37°55' E 023°05'0 0.0
2017-Sep-18 06:55N 37°55' E 023°05'0 0.0
2017-Sep-18 06:30N 37°55' E 023°05'0 0.0
2017-Sep-18 05:44N 37°55' E 023°05'0 0.0
2017-Sep-18 05:30N 37°55' E 023°05'0 0.0
2017-Sep-18 05:00N 37°55' E 023°05'0 0.0
2017-Sep-18 04:28N 37°55' E 023°05'1 1.8
2017-Sep-18 03:51N 37°54' E 023°06'1 1.5
2017-Sep-18 03:30N 37°54' E 023°07'5 9.0
2017-Sep-18 03:00N 37°53' E 023°13'5 9.5
2017-Sep-18 02:30N 37°52' E 023°18'5 9.7
2017-Sep-18 02:00N 37°51' E 023°24'5 9.9
2017-Sep-18 01:30N 37°50' E 023°31'510.0
2017-Sep-18 01:00N 37°50' E 023°37'5 9.1
2017-Sep-18 00:30N 37°47' E 023°42'5 9.9
2017-Sep-18 00:00N 37°43' E 023°44'510.1
2017-Sep-17 23:30N 37°39' E 023°48'510.3
2017-Sep-17 23:00N 37°35' E 023°52'510.0
2017-Sep-17 22:30N 37°31' E 023°56'510.3
2017-Sep-17 22:00N 37°27' E 023°60'5 9.8
2017-Sep-17 21:30N 37°23' E 024°04'5 9.4
2017-Sep-17 21:00N 37°19' E 024°08'11 9.5
2017-Sep-17 19:50N 37°10' E 024°16'3 9.5
2017-Sep-17 19:30N 37°08' E 024°19'49 4.5
2017-Sep-17 08:32N 36°19' E 024°24'010.8
2017-Sep-17 08:30N 36°19' E 024°24'710.6
2017-Sep-17 07:48N 36°12' E 024°21'310.4
2017-Sep-17 07:30N 36°09' E 024°19'510.7
2017-Sep-17 07:00N 36°04' E 024°17'610.7
2017-Sep-17 06:26N 35°58' E 024°14'510.6
2017-Sep-17 06:00N 35°54' E 024°12'610.7
2017-Sep-17 05:29N 35°49' E 024°10'1210.7
2017-Sep-17 04:20N 35°37' E 024°04'310.5
2017-Sep-17 04:00N 35°34' E 024°03'19 0.7
2017-Sep-16 01:06N 35°34' E 024°27'1 8.6
2017-Sep-16 01:00N 35°34' E 024°28'123 4.7
2017-Sep-14 22:56N 37°32' E 023°46'4 9.8
2017-Sep-14 22:30N 37°36' E 023°44'5 9.7
2017-Sep-14 22:00N 37°40' E 023°42'5 9.9
2017-Sep-14 21:30N 37°44' E 023°39'5 9.8
2017-Sep-14 21:00N 37°49' E 023°36'5 9.9
2017-Sep-14 20:30N 37°50' E 023°30'510.1
2017-Sep-14 20:00N 37°52' E 023°25'4 8.4
2017-Sep-14 19:31N 37°56' E 023°23'3 6.6
2017-Sep-14 19:01N 37°59' E 023°25'5 9.7
2017-Sep-14 18:31N 38°01' E 023°30'3 6.8
2017-Sep-14 18:01N 38°01' E 023°35'1 1.6
2017-Sep-14 17:30N 38°02' E 023°36'0 0.0
2017-Sep-14 17:00N 38°02' E 023°36'0 0.0
2017-Sep-14 16:31N 38°02' E 023°36'0 0.0
2017-Sep-14 16:00N 38°02' E 023°36'0 0.0
2017-Sep-14 15:31N 38°02' E 023°36'0 0.0
2017-Sep-14 15:00N 38°02' E 023°36'0 0.0
2017-Sep-14 14:31N 38°02' E 023°36'0 0.0
2017-Sep-14 14:00N 38°02' E 023°36'0 0.0
2017-Sep-14 13:31N 38°02' E 023°36'0 0.2
2017-Sep-14 13:00N 38°02' E 023°36'3 5.5
2017-Sep-14 12:31N 38°01' E 023°32'0 0.2
2017-Sep-14 12:00N 38°01' E 023°32'0 0.0
2017-Sep-14 11:30N 38°01' E 023°32'1 1.5
2017-Sep-14 11:01N 38°01' E 023°31'5 9.9
2017-Sep-14 10:31N 37°59' E 023°25'3 6.6
2017-Sep-14 10:00N 37°57' E 023°23'510.5
2017-Sep-14 09:30N 37°56' E 023°16'510.4
2017-Sep-14 09:00N 37°55' E 023°10'4 6.5
2017-Sep-14 08:27N 37°55' E 023°05'0 0.0
2017-Sep-14 07:55N 37°55' E 023°05'0 0.0
2017-Sep-14 07:30N 37°55' E 023°05'0 0.0
2017-Sep-14 06:55N 37°55' E 023°05'0 0.0
2017-Sep-14 06:30N 37°55' E 023°05'0 0.0
2017-Sep-14 05:59N 37°55' E 023°05'0 0.0
2017-Sep-14 05:30N 37°55' E 023°05'0 0.0
2017-Sep-14 04:58N 37°55' E 023°05'0 0.0
2017-Sep-14 04:16N 37°55' E 023°05'0 0.0
2017-Sep-14 02:41N 37°55' E 023°05'0 0.0
2017-Sep-14 02:25N 37°55' E 023°05'0 0.0
2017-Sep-13 14:28N 37°55' E 023°05'1 1.5
2017-Sep-13 13:59N 37°54' E 023°05'  
2017-Sep-11 03:12N 37°54' E 023°04'1 3.4
2017-Sep-11 02:57N 37°54' E 023°05'1 0.6
2017-Sep-11 01:32N 37°55' E 023°05'0 0.0
2017-Sep-11 01:15N 37°55' E 023°05'0 0.0
2017-Sep-10 23:58N 37°55' E 023°05'0 0.0
2017-Sep-10 23:29N 37°55' E 023°05'0 0.0
2017-Sep-10 23:00N 37°55' E 023°05'0 0.0
2017-Sep-10 22:07N 37°55' E 023°05'0 0.0
2017-Sep-10 21:02N 37°55' E 023°05'0 0.0
2017-Sep-10 20:57N 37°55' E 023°05'0 0.0
2017-Sep-10 20:15N 37°55' E 023°05'0 0.0
2017-Sep-10 19:52N 37°55' E 023°05'0 0.0
2017-Sep-10 19:30N 37°55' E 023°05'0 0.0
2017-Sep-10 19:00N 37°55' E 023°05'0 0.0
2017-Sep-10 18:30N 37°55' E 023°05'0 0.0
2017-Sep-10 18:00N 37°55' E 023°05'0 0.0
2017-Sep-10 17:30N 37°55' E 023°05'0 0.0
2017-Sep-10 17:00N 37°55' E 023°05'0 0.0
2017-Sep-10 16:06N 37°55' E 023°05'0 0.0
2017-Sep-10 16:00N 37°55' E 023°05'0 0.0
2017-Sep-10 15:30N 37°55' E 023°05'0 0.0
2017-Sep-10 15:00N 37°55' E 023°05'0 0.0
2017-Sep-10 14:00N 37°55' E 023°05'0 0.0
2017-Sep-10 13:30N 37°55' E 023°05'0 0.0
2017-Sep-10 13:00N 37°55' E 023°05'0 0.0
2017-Sep-10 12:30N 37°55' E 023°05'0 0.0
2017-Sep-10 11:47N 37°55' E 023°05'0 0.0
2017-Sep-10 11:30N 37°55' E 023°05'0 0.0
2017-Sep-10 10:59N 37°55' E 023°05'0 0.2
2017-Sep-10 10:31N 37°55' E 023°05'1 1.6
2017-Sep-10 09:42N 37°54' E 023°07'1 6.5
2017-Sep-10 09:30N 37°54' E 023°08'510.4
2017-Sep-10 09:00N 37°53' E 023°15'510.3
2017-Sep-10 08:30N 37°52' E 023°21'510.3
2017-Sep-10 08:00N 37°51' E 023°27'510.3
2017-Sep-10 07:30N 37°50' E 023°34'5 9.5
2017-Sep-10 07:00N 37°49' E 023°40'510.0
2017-Sep-10 06:30N 37°45' E 023°43'5 9.7
2017-Sep-10 05:59N 37°40' E 023°46'5 9.9
2017-Sep-10 05:29N 37°39' E 023°52'7 9.4
2017-Sep-10 04:48N 37°36' E 023°59'38 9.4
2017-Sep-10 00:48N 37°23' E 024°44'3 9.9
2017-Sep-10 00:30N 37°22' E 024°47'5 9.7
2017-Sep-10 00:00N 37°20' E 024°53'5 9.9
2017-Sep-09 23:30N 37°19' E 024°59'510.3
2017-Sep-09 23:00N 37°18' E 025°05'510.3
2017-Sep-09 22:31N 37°17' E 025°12'5 9.6
2017-Sep-09 22:00N 37°15' E 025°17'510.2
2017-Sep-09 21:30N 37°15' E 025°23'510.1
2017-Sep-09 21:00N 37°14' E 025°30'7 9.5
2017-Sep-09 20:19N 37°13' E 025°38'3 9.7
2017-Sep-09 20:00N 37°12' E 025°41'510.0
2017-Sep-09 19:30N 37°11' E 025°48'  

Dump ship's entire track history